sensor_id;sensor_type;location;lat;lon;timestamp;temperature;humidity
9466;DHT22;4771;48.726;9.006;2023-04-01T00:01:28;8.70;99.90
9466;DHT22;4771;48.726;9.006;2023-04-01T00:03:55;8.70;99.90
9466;DHT22;4771;48.726;9.006;2023-04-01T00:06:22;8.70;99.90
9466;DHT22;4771;48.726;9.006;2023-04-01T00:08:49;8.60;99.90
9466;DHT22;4771;48.726;9.006;2023-04-01T00:11:16;8.60;99.90
9466;DHT22;4771;48.726;9.006;2023-04-01T00:13:44;8.60;99.90
9466;DHT22;4771;48.726;9.006;2023-04-01T00:16:11;8.70;99.90
9466;DHT22;4771;48.726;9.006;2023-04-01T00:18:39;8.70;99.90
9466;DHT22;4771;48.726;9.006;2023-04-01T00:21:06;8.70;99.90
9466;DHT22;4771;48.726;9.006;2023-04-01T00:23:33;8.70;99.90
9466;DHT22;4771;48.726;9.006;2023-04-01T00:26:00;8.70;99.90
9466;DHT22;4771;48.726;9.006;2023-04-01T00:28:27;8.70;99.90
9466;DHT22;4771;48.726;9.006;2023-04-01T00:30:55;8.70;99.90
9466;DHT22;4771;48.726;9.006;2023-04-01T00:33:22;8.70;99.90
9466;DHT22;4771;48.726;9.006;2023-04-01T00:35:50;8.70;99.90
9466;DHT22;4771;48.726;9.006;2023-04-01T00:38:17;8.80;99.90
9466;DHT22;4771;48.726;9.006;2023-04-01T00:40:45;8.70;99.90
9466;DHT22;4771;48.726;9.006;2023-04-01T00:43:14;8.60;99.90
9466;DHT22;4771;48.726;9.006;2023-04-01T00:45:44;8.70;99.90
9466;DHT22;4771;48.726;9.006;2023-04-01T00:48:14;8.70;99.90
9466;DHT22;4771;48.726;9.006;2023-04-01T00:50:44;8.70;99.90
9466;DHT22;4771;48.726;9.006;2023-04-01T00:53:14;8.70;99.90
9466;DHT22;4771;48.726;9.006;2023-04-01T00:55:45;8.70;99.90
9466;DHT22;4771;48.726;9.006;2023-04-01T00:58:17;8.70;99.90
9466;DHT22;4771;48.726;9.006;2023-04-01T01:00:46;8.70;99.90
9466;DHT22;4771;48.726;9.006;2023-04-01T01:03:14;8.70;99.90
9466;DHT22;4771;48.726;9.006;2023-04-01T01:05:57;8.80;99.90
9466;DHT22;4771;48.726;9.006;2023-04-01T01:08:31;8.90;99.90
9466;DHT22;4771;48.726;9.006;2023-04-01T01:11:05;8.90;99.90
9466;DHT22;4771;48.726;9.006;2023-04-01T01:13:40;8.80;99.90
9466;DHT22;4771;48.726;9.006;2023-04-01T01:16:12;8.90;99.90
9466;DHT22;4771;48.726;9.006;2023-04-01T01:18:46;8.90;99.90
9466;DHT22;4771;48.726;9.006;2023-04-01T01:24:53;8.90;99.90
9466;DHT22;4771;48.726;9.006;2023-04-01T01:27:22;8.90;99.90
9466;DHT22;4771;48.726;9.006;2023-04-01T01:33:06;8.90;99.90
9466;DHT22;4771;48.726;9.006;2023-04-01T01:35:40;8.80;99.90
9466;DHT22;4771;48.726;9.006;2023-04-01T01:38:13;8.80;99.90
9466;DHT22;4771;48.726;9.006;2023-04-01T01:40:42;8.90;99.90
9466;DHT22;4771;48.726;9.006;2023-04-01T01:43:14;8.90;99.90
9466;DHT22;4771;48.726;9.006;2023-04-01T01:45:46;8.80;99.90
9466;DHT22;4771;48.726;9.006;2023-04-01T01:48:14;8.80;99.90
9466;DHT22;4771;48.726;9.006;2023-04-01T01:50:45;8.70;99.90
9466;DHT22;4771;48.726;9.006;2023-04-01T01:53:13;8.70;99.90
9466;DHT22;4771;48.726;9.006;2023-04-01T01:55:42;8.80;99.90
9466;DHT22;4771;48.726;9.006;2023-04-01T01:58:12;8.70;99.90
9466;DHT22;4771;48.726;9.006;2023-04-01T02:00:41;8.60;99.90
9466;DHT22;4771;48.726;9.006;2023-04-01T02:03:11;8.70;99.90
9466;DHT22;4771;48.726;9.006;2023-04-01T02:05:39;8.70;99.90
9466;DHT22;4771;48.726;9.006;2023-04-01T02:08:12;8.60;99.90
9466;DHT22;4771;48.726;9.006;2023-04-01T02:10:43;8.70;99.90
9466;DHT22;4771;48.726;9.006;2023-04-01T02:13:17;8.60;99.90
9466;DHT22;4771;48.726;9.006;2023-04-01T02:15:47;8.60;99.90
9466;DHT22;4771;48.726;9.006;2023-04-01T02:18:16;8.60;99.90
9466;DHT22;4771;48.726;9.006;2023-04-01T02:20:45;8.60;99.90
9466;DHT22;4771;48.726;9.006;2023-04-01T02:23:13;8.60;99.90
9466;DHT22;4771;48.726;9.006;2023-04-01T02:25:42;8.60;99.90
9466;DHT22;4771;48.726;9.006;2023-04-01T02:28:10;8.70;99.90
9466;DHT22;4771;48.726;9.006;2023-04-01T02:30:39;8.70;99.90
9466;DHT22;4771;48.726;9.006;2023-04-01T02:33:07;8.70;99.90
9466;DHT22;4771;48.726;9.006;2023-04-01T02:35:36;8.50;99.90
9466;DHT22;4771;48.726;9.006;2023-04-01T02:38:03;8.50;99.90
9466;DHT22;4771;48.726;9.006;2023-04-01T02:40:46;8.60;99.90
9466;DHT22;4771;48.726;9.006;2023-04-01T02:43:14;8.60;99.90
9466;DHT22;4771;48.726;9.006;2023-04-01T02:45:41;8.60;99.90
9466;DHT22;4771;48.726;9.006;2023-04-01T02:48:08;8.60;99.90
9466;DHT22;4771;48.726;9.006;2023-04-01T02:50:35;8.60;99.90
9466;DHT22;4771;48.726;9.006;2023-04-01T02:53:02;8.50;99.90
9466;DHT22;4771;48.726;9.006;2023-04-01T02:55:31;8.10;99.90
9466;DHT22;4771;48.726;9.006;2023-04-01T02:57:59;8.60;99.90
9466;DHT22;4771;48.726;9.006;2023-04-01T03:00:27;8.60;99.90
9466;DHT22;4771;48.726;9.006;2023-04-01T03:02:54;8.60;99.90
9466;DHT22;4771;48.726;9.006;2023-04-01T03:05:21;8.60;99.90
9466;DHT22;4771;48.726;9.006;2023-04-01T03:07:48;8.60;99.90
9466;DHT22;4771;48.726;9.006;2023-04-01T03:10:15;8.90;99.90
9466;DHT22;4771;48.726;9.006;2023-04-01T03:12:42;8.50;99.90
9466;DHT22;4771;48.726;9.006;2023-04-01T03:15:12;8.60;99.90
9466;DHT22;4771;48.726;9.006;2023-04-01T03:17:40;8.60;99.90
9466;DHT22;4771;48.726;9.006;2023-04-01T03:20:09;8.60;99.90
9466;DHT22;4771;48.726;9.006;2023-04-01T03:22:36;8.60;99.90
9466;DHT22;4771;48.726;9.006;2023-04-01T03:25:04;8.50;99.90
9466;DHT22;4771;48.726;9.006;2023-04-01T03:27:31;8.50;99.90
9466;DHT22;4771;48.726;9.006;2023-04-01T03:29:58;8.50;99.90
9466;DHT22;4771;48.726;9.006;2023-04-01T03:32:26;8.50;99.90
9466;DHT22;4771;48.726;9.006;2023-04-01T03:34:53;8.50;99.90
9466;DHT22;4771;48.726;9.006;2023-04-01T03:37:20;8.40;99.90
9466;DHT22;4771;48.726;9.006;2023-04-01T03:39:47;8.50;99.90
9466;DHT22;4771;48.726;9.006;2023-04-01T03:42:13;8.40;99.90
9466;DHT22;4771;48.726;9.006;2023-04-01T03:44:40;8.40;99.90
9466;DHT22;4771;48.726;9.006;2023-04-01T03:47:07;8.50;99.90
9466;DHT22;4771;48.726;9.006;2023-04-01T03:49:37;8.50;99.90
9466;DHT22;4771;48.726;9.006;2023-04-01T03:52:04;8.60;99.90
9466;DHT22;4771;48.726;9.006;2023-04-01T03:54:30;8.30;99.90
9466;DHT22;4771;48.726;9.006;2023-04-01T03:56:57;8.30;99.90
9466;DHT22;4771;48.726;9.006;2023-04-01T03:59:24;8.20;99.90
9466;DHT22;4771;48.726;9.006;2023-04-01T04:01:51;8.20;99.90
9466;DHT22;4771;48.726;9.006;2023-04-01T04:04:18;8.20;99.90
9466;DHT22;4771;48.726;9.006;2023-04-01T04:06:46;8.20;99.90
9466;DHT22;4771;48.726;9.006;2023-04-01T04:09:13;8.20;99.90
9466;DHT22;4771;48.726;9.006;2023-04-01T04:11:40;8.20;99.90
9466;DHT22;4771;48.726;9.006;2023-04-01T04:14:07;8.20;99.90
9466;DHT22;4771;48.726;9.006;2023-04-01T04:16:35;8.20;99.90
9466;DHT22;4771;48.726;9.006;2023-04-01T04:19:03;8.30;99.90
9466;DHT22;4771;48.726;9.006;2023-04-01T04:21:30;8.30;99.90
9466;DHT22;4771;48.726;9.006;2023-04-01T04:23:58;8.20;99.90
9466;DHT22;4771;48.726;9.006;2023-04-01T04:26:25;8.20;99.90
9466;DHT22;4771;48.726;9.006;2023-04-01T04:28:53;8.40;99.90
9466;DHT22;4771;48.726;9.006;2023-04-01T04:31:20;8.20;99.90
9466;DHT22;4771;48.726;9.006;2023-04-01T04:33:47;8.30;99.90
9466;DHT22;4771;48.726;9.006;2023-04-01T04:36:15;8.20;99.90
9466;DHT22;4771;48.726;9.006;2023-04-01T04:38:42;8.20;99.90
9466;DHT22;4771;48.726;9.006;2023-04-01T04:41:10;8.20;99.90
9466;DHT22;4771;48.726;9.006;2023-04-01T04:43:38;8.10;99.90
9466;DHT22;4771;48.726;9.006;2023-04-01T04:46:05;8.10;99.90
9466;DHT22;4771;48.726;9.006;2023-04-01T04:48:32;8.10;99.90
9466;DHT22;4771;48.726;9.006;2023-04-01T04:51:00;8.10;99.90
9466;DHT22;4771;48.726;9.006;2023-04-01T04:53:27;8.10;99.90
9466;DHT22;4771;48.726;9.006;2023-04-01T04:55:54;8.00;99.90
9466;DHT22;4771;48.726;9.006;2023-04-01T04:58:22;8.00;99.90
9466;DHT22;4771;48.726;9.006;2023-04-01T05:00:49;8.60;99.90
9466;DHT22;4771;48.726;9.006;2023-04-01T05:03:15;7.80;99.90
9466;DHT22;4771;48.726;9.006;2023-04-01T05:05:48;7.70;99.90
9466;DHT22;4771;48.726;9.006;2023-04-01T05:08:16;7.80;99.90
9466;DHT22;4771;48.726;9.006;2023-04-01T05:10:43;7.70;99.90
9466;DHT22;4771;48.726;9.006;2023-04-01T05:13:10;7.80;99.90
9466;DHT22;4771;48.726;9.006;2023-04-01T05:15:38;7.80;99.90
9466;DHT22;4771;48.726;9.006;2023-04-01T05:18:05;7.90;99.90
9466;DHT22;4771;48.726;9.006;2023-04-01T05:20:32;7.90;99.90
9466;DHT22;4771;48.726;9.006;2023-04-01T05:22:59;8.00;99.90
9466;DHT22;4771;48.726;9.006;2023-04-01T05:25:27;8.10;99.90
9466;DHT22;4771;48.726;9.006;2023-04-01T05:27:54;7.90;99.90
9466;DHT22;4771;48.726;9.006;2023-04-01T05:30:21;8.00;99.90
9466;DHT22;4771;48.726;9.006;2023-04-01T05:32:49;8.00;99.90
9466;DHT22;4771;48.726;9.006;2023-04-01T05:35:16;8.10;99.90
9466;DHT22;4771;48.726;9.006;2023-04-01T05:37:43;8.10;99.90
9466;DHT22;4771;48.726;9.006;2023-04-01T05:40:10;8.20;99.90
9466;DHT22;4771;48.726;9.006;2023-04-01T05:42:37;8.20;99.90
9466;DHT22;4771;48.726;9.006;2023-04-01T05:45:05;8.20;99.90
9466;DHT22;4771;48.726;9.006;2023-04-01T05:47:32;8.20;99.90
9466;DHT22;4771;48.726;9.006;2023-04-01T05:50:00;8.20;99.90
9466;DHT22;4771;48.726;9.006;2023-04-01T05:52:27;8.30;99.90
9466;DHT22;4771;48.726;9.006;2023-04-01T05:54:54;8.40;99.90
9466;DHT22;4771;48.726;9.006;2023-04-01T05:57:21;8.40;99.90
9466;DHT22;4771;48.726;9.006;2023-04-01T05:59:47;8.30;99.90
9466;DHT22;4771;48.726;9.006;2023-04-01T06:02:17;8.30;99.90
9466;DHT22;4771;48.726;9.006;2023-04-01T06:04:45;8.30;99.90
9466;DHT22;4771;48.726;9.006;2023-04-01T06:07:14;8.30;99.90
9466;DHT22;4771;48.726;9.006;2023-04-01T06:09:42;8.40;99.90
9466;DHT22;4771;48.726;9.006;2023-04-01T06:12:34;8.40;99.90
9466;DHT22;4771;48.726;9.006;2023-04-01T06:15:17;8.50;99.90
9466;DHT22;4771;48.726;9.006;2023-04-01T06:18:03;8.40;99.90
9466;DHT22;4771;48.726;9.006;2023-04-01T06:20:39;8.50;99.90
9466;DHT22;4771;48.726;9.006;2023-04-01T06:23:41;8.40;99.90
9466;DHT22;4771;48.726;9.006;2023-04-01T06:26:21;8.40;99.90
9466;DHT22;4771;48.726;9.006;2023-04-01T06:29:19;8.40;99.90
9466;DHT22;4771;48.726;9.006;2023-04-01T06:32:20;8.40;99.90
9466;DHT22;4771;48.726;9.006;2023-04-01T06:38:00;8.50;99.90
9466;DHT22;4771;48.726;9.006;2023-04-01T06:40:42;8.50;99.90
9466;DHT22;4771;48.726;9.006;2023-04-01T06:43:17;8.50;99.90
9466;DHT22;4771;48.726;9.006;2023-04-01T06:45:52;8.50;99.90
9466;DHT22;4771;48.726;9.006;2023-04-01T06:48:36;8.50;99.90
9466;DHT22;4771;48.726;9.006;2023-04-01T06:51:12;8.50;99.90
9466;DHT22;4771;48.726;9.006;2023-04-01T06:53:49;8.50;99.90
9466;DHT22;4771;48.726;9.006;2023-04-01T06:56:22;8.60;99.90
9466;DHT22;4771;48.726;9.006;2023-04-01T06:58:53;8.60;99.90
9466;DHT22;4771;48.726;9.006;2023-04-01T07:01:25;8.50;99.90
9466;DHT22;4771;48.726;9.006;2023-04-01T07:03:57;8.50;99.90
9466;DHT22;4771;48.726;9.006;2023-04-01T07:06:28;8.60;99.90
9466;DHT22;4771;48.726;9.006;2023-04-01T07:08:59;8.60;99.90
9466;DHT22;4771;48.726;9.006;2023-04-01T07:11:32;8.60;99.90
9466;DHT22;4771;48.726;9.006;2023-04-01T07:14:02;8.70;99.90
9466;DHT22;4771;48.726;9.006;2023-04-01T07:16:32;8.70;99.90
9466;DHT22;4771;48.726;9.006;2023-04-01T07:19:04;8.70;99.90
9466;DHT22;4771;48.726;9.006;2023-04-01T07:21:37;8.70;99.90
9466;DHT22;4771;48.726;9.006;2023-04-01T07:24:11;8.60;99.90
9466;DHT22;4771;48.726;9.006;2023-04-01T07:26:42;8.60;99.90
9466;DHT22;4771;48.726;9.006;2023-04-01T07:29:12;8.60;99.90
9466;DHT22;4771;48.726;9.006;2023-04-01T07:32:06;8.70;99.90
9466;DHT22;4771;48.726;9.006;2023-04-01T07:34:38;8.70;99.90
9466;DHT22;4771;48.726;9.006;2023-04-01T07:37:12;8.60;99.90
9466;DHT22;4771;48.726;9.006;2023-04-01T07:39:48;8.60;99.90
9466;DHT22;4771;48.726;9.006;2023-04-01T07:42:24;8.60;99.90
9466;DHT22;4771;48.726;9.006;2023-04-01T07:45:00;8.60;99.90
9466;DHT22;4771;48.726;9.006;2023-04-01T07:47:45;8.70;99.90
9466;DHT22;4771;48.726;9.006;2023-04-01T07:50:21;8.70;99.90
9466;DHT22;4771;48.726;9.006;2023-04-01T07:53:00;8.80;99.90
9466;DHT22;4771;48.726;9.006;2023-04-01T07:55:35;8.80;99.90
9466;DHT22;4771;48.726;9.006;2023-04-01T07:58:10;8.80;99.90
9466;DHT22;4771;48.726;9.006;2023-04-01T08:00:44;8.80;99.90
9466;DHT22;4771;48.726;9.006;2023-04-01T08:03:29;8.80;99.90
9466;DHT22;4771;48.726;9.006;2023-04-01T08:06:01;8.90;99.90
9466;DHT22;4771;48.726;9.006;2023-04-01T08:08:39;8.90;99.90
9466;DHT22;4771;48.726;9.006;2023-04-01T08:11:14;8.80;99.90
9466;DHT22;4771;48.726;9.006;2023-04-01T08:13:48;8.70;99.90
9466;DHT22;4771;48.726;9.006;2023-04-01T08:16:25;8.90;99.90
9466;DHT22;4771;48.726;9.006;2023-04-01T08:19:00;9.00;99.90
9466;DHT22;4771;48.726;9.006;2023-04-01T08:21:35;8.90;99.90
9466;DHT22;4771;48.726;9.006;2023-04-01T08:24:10;8.90;99.90
9466;DHT22;4771;48.726;9.006;2023-04-01T08:26:40;8.90;99.90
9466;DHT22;4771;48.726;9.006;2023-04-01T08:29:15;8.90;99.90
9466;DHT22;4771;48.726;9.006;2023-04-01T08:31:47;8.90;99.90
9466;DHT22;4771;48.726;9.006;2023-04-01T08:34:17;8.90;99.90
9466;DHT22;4771;48.726;9.006;2023-04-01T08:36:48;8.80;99.90
9466;DHT22;4771;48.726;9.006;2023-04-01T08:39:21;8.80;99.90
9466;DHT22;4771;48.726;9.006;2023-04-01T08:42:18;8.70;99.90
9466;DHT22;4771;48.726;9.006;2023-04-01T08:45:17;8.70;99.90
9466;DHT22;4771;48.726;9.006;2023-04-01T08:48:00;8.70;99.90
9466;DHT22;4771;48.726;9.006;2023-04-01T08:50:52;8.70;99.90
9466;DHT22;4771;48.726;9.006;2023-04-01T08:53:29;8.70;99.90
9466;DHT22;4771;48.726;9.006;2023-04-01T08:56:06;8.60;99.90
9466;DHT22;4771;48.726;9.006;2023-04-01T08:58:47;8.70;99.90
9466;DHT22;4771;48.726;9.006;2023-04-01T09:01:32;8.50;99.90
9466;DHT22;4771;48.726;9.006;2023-04-01T09:07:11;8.50;99.90
9466;DHT22;4771;48.726;9.006;2023-04-01T09:10:04;8.70;99.90
9466;DHT22;4771;48.726;9.006;2023-04-01T09:12:49;8.70;99.90
9466;DHT22;4771;48.726;9.006;2023-04-01T09:15:35;8.80;99.90
9466;DHT22;4771;48.726;9.006;2023-04-01T09:18:13;8.90;99.90
9466;DHT22;4771;48.726;9.006;2023-04-01T09:20:49;8.90;99.90
9466;DHT22;4771;48.726;9.006;2023-04-01T09:23:34;9.10;99.90
9466;DHT22;4771;48.726;9.006;2023-04-01T09:26:18;9.30;99.90
9466;DHT22;4771;48.726;9.006;2023-04-01T09:28:54;9.40;99.90
9466;DHT22;4771;48.726;9.006;2023-04-01T09:31:38;9.40;99.90
9466;DHT22;4771;48.726;9.006;2023-04-01T09:34:30;9.40;99.90
9466;DHT22;4771;48.726;9.006;2023-04-01T09:37:18;9.40;99.90
9466;DHT22;4771;48.726;9.006;2023-04-01T09:40:13;9.30;99.90
9466;DHT22;4771;48.726;9.006;2023-04-01T09:42:54;9.30;99.90
9466;DHT22;4771;48.726;9.006;2023-04-01T09:45:44;9.20;99.90
9466;DHT22;4771;48.726;9.006;2023-04-01T09:48:22;9.20;99.90
9466;DHT22;4771;48.726;9.006;2023-04-01T09:51:00;9.20;99.90
9466;DHT22;4771;48.726;9.006;2023-04-01T09:53:41;9.10;99.90
9466;DHT22;4771;48.726;9.006;2023-04-01T10:00:01;9.00;99.90
9466;DHT22;4771;48.726;9.006;2023-04-01T10:03:23;8.90;99.90
9466;DHT22;4771;48.726;9.006;2023-04-01T10:06:24;9.00;99.90
9466;DHT22;4771;48.726;9.006;2023-04-01T10:09:21;9.00;99.90
9466;DHT22;4771;48.726;9.006;2023-04-01T10:12:26;9.00;99.90
9466;DHT22;4771;48.726;9.006;2023-04-01T10:21:20;9.30;99.90
9466;DHT22;4771;48.726;9.006;2023-04-01T10:24:05;9.20;99.90
9466;DHT22;4771;48.726;9.006;2023-04-01T10:26:59;9.20;99.90
9466;DHT22;4771;48.726;9.006;2023-04-01T10:29:58;9.30;99.90
9466;DHT22;4771;48.726;9.006;2023-04-01T10:35:58;9.50;99.90
9466;DHT22;4771;48.726;9.006;2023-04-01T10:39:06;9.70;99.90
9466;DHT22;4771;48.726;9.006;2023-04-01T10:41:56;9.90;99.90
9466;DHT22;4771;48.726;9.006;2023-04-01T10:50:47;10.00;99.90
9466;DHT22;4771;48.726;9.006;2023-04-01T10:53:42;10.00;99.90
9466;DHT22;4771;48.726;9.006;2023-04-01T10:56:33;10.10;99.90
9466;DHT22;4771;48.726;9.006;2023-04-01T11:02:57;10.10;99.90
9466;DHT22;4771;48.726;9.006;2023-04-01T11:12:15;10.10;99.90
9466;DHT22;4771;48.726;9.006;2023-04-01T11:15:11;10.10;99.90
9466;DHT22;4771;48.726;9.006;2023-04-01T11:18:18;10.10;99.90
9466;DHT22;4771;48.726;9.006;2023-04-01T11:21:22;10.20;99.90
9466;DHT22;4771;48.726;9.006;2023-04-01T11:24:17;10.30;99.90
9466;DHT22;4771;48.726;9.006;2023-04-01T11:26:57;10.30;99.90
9466;DHT22;4771;48.726;9.006;2023-04-01T11:30:02;10.30;99.90
9466;DHT22;4771;48.726;9.006;2023-04-01T11:32:43;10.30;99.90
9466;DHT22;4771;48.726;9.006;2023-04-01T11:35:28;10.30;99.90
9466;DHT22;4771;48.726;9.006;2023-04-01T11:38:06;10.70;99.90
9466;DHT22;4771;48.726;9.006;2023-04-01T11:40:41;10.30;99.90
9466;DHT22;4771;48.726;9.006;2023-04-01T11:43:14;10.40;99.90
9466;DHT22;4771;48.726;9.006;2023-04-01T11:45:48;10.40;99.90
9466;DHT22;4771;48.726;9.006;2023-04-01T11:48:38;10.30;99.90
9466;DHT22;4771;48.726;9.006;2023-04-01T11:51:20;10.10;99.90
9466;DHT22;4771;48.726;9.006;2023-04-01T11:53:58;10.10;99.90
9466;DHT22;4771;48.726;9.006;2023-04-01T11:56:41;10.10;99.90
9466;DHT22;4771;48.726;9.006;2023-04-01T12:02:28;10.10;99.90
9466;DHT22;4771;48.726;9.006;2023-04-01T12:05:24;10.10;99.90
9466;DHT22;4771;48.726;9.006;2023-04-01T12:08:04;10.20;99.90
9466;DHT22;4771;48.726;9.006;2023-04-01T12:10:39;10.20;99.90
9466;DHT22;4771;48.726;9.006;2023-04-01T12:13:13;10.30;99.90
9466;DHT22;4771;48.726;9.006;2023-04-01T12:15:53;10.20;99.90
9466;DHT22;4771;48.726;9.006;2023-04-01T12:18:25;10.20;99.90
9466;DHT22;4771;48.726;9.006;2023-04-01T12:20:59;10.30;99.90
9466;DHT22;4771;48.726;9.006;2023-04-01T12:23:44;10.30;99.90
9466;DHT22;4771;48.726;9.006;2023-04-01T12:26:35;10.20;99.90
9466;DHT22;4771;48.726;9.006;2023-04-01T12:29:18;10.20;99.90
9466;DHT22;4771;48.726;9.006;2023-04-01T12:31:52;10.10;99.90
9466;DHT22;4771;48.726;9.006;2023-04-01T12:34:46;11.20;99.90
9466;DHT22;4771;48.726;9.006;2023-04-01T12:37:20;10.30;99.90
9466;DHT22;4771;48.726;9.006;2023-04-01T12:43:02;10.00;99.90
9466;DHT22;4771;48.726;9.006;2023-04-01T12:45:33;10.10;99.90
9466;DHT22;4771;48.726;9.006;2023-04-01T12:48:13;10.20;99.90
9466;DHT22;4771;48.726;9.006;2023-04-01T12:51:01;10.20;99.90
9466;DHT22;4771;48.726;9.006;2023-04-01T12:53:51;10.30;99.90
9466;DHT22;4771;48.726;9.006;2023-04-01T12:56:32;10.20;99.90
9466;DHT22;4771;48.726;9.006;2023-04-01T12:59:23;10.30;99.90
9466;DHT22;4771;48.726;9.006;2023-04-01T13:02:01;10.20;99.90
9466;DHT22;4771;48.726;9.006;2023-04-01T13:04:46;10.30;99.90
9466;DHT22;4771;48.726;9.006;2023-04-01T13:07:28;10.20;99.90
9466;DHT22;4771;48.726;9.006;2023-04-01T13:10:02;10.20;99.90
9466;DHT22;4771;48.726;9.006;2023-04-01T13:12:40;10.20;99.90
9466;DHT22;4771;48.726;9.006;2023-04-01T13:15:21;10.30;99.90
9466;DHT22;4771;48.726;9.006;2023-04-01T13:17:53;10.30;99.90
9466;DHT22;4771;48.726;9.006;2023-04-01T13:20:36;10.30;99.90
9466;DHT22;4771;48.726;9.006;2023-04-01T13:23:19;10.20;99.90
9466;DHT22;4771;48.726;9.006;2023-04-01T13:25:53;10.20;99.90
9466;DHT22;4771;48.726;9.006;2023-04-01T13:28:23;10.20;99.90
9466;DHT22;4771;48.726;9.006;2023-04-01T13:30:57;10.30;99.90
9466;DHT22;4771;48.726;9.006;2023-04-01T13:33:30;10.40;99.90
9466;DHT22;4771;48.726;9.006;2023-04-01T13:36:16;10.30;99.90
9466;DHT22;4771;48.726;9.006;2023-04-01T13:39:09;10.30;99.90
9466;DHT22;4771;48.726;9.006;2023-04-01T13:41:53;10.30;99.90
9466;DHT22;4771;48.726;9.006;2023-04-01T13:44:31;10.40;99.90
9466;DHT22;4771;48.726;9.006;2023-04-01T13:47:28;10.40;99.90
9466;DHT22;4771;48.726;9.006;2023-04-01T13:50:17;10.30;99.90
9466;DHT22;4771;48.726;9.006;2023-04-01T13:53:03;10.30;99.90
9466;DHT22;4771;48.726;9.006;2023-04-01T13:55:54;10.20;99.90
9466;DHT22;4771;48.726;9.006;2023-04-01T13:58:51;10.30;99.90
9466;DHT22;4771;48.726;9.006;2023-04-01T14:01:29;10.40;99.90
9466;DHT22;4771;48.726;9.006;2023-04-01T14:07:11;10.30;99.90
9466;DHT22;4771;48.726;9.006;2023-04-01T14:09:49;10.10;99.90
9466;DHT22;4771;48.726;9.006;2023-04-01T14:12:29;10.10;99.90
9466;DHT22;4771;48.726;9.006;2023-04-01T14:15:19;10.10;99.90
9466;DHT22;4771;48.726;9.006;2023-04-01T14:18:06;10.20;99.90
9466;DHT22;4771;48.726;9.006;2023-04-01T14:20:40;10.10;99.90
9466;DHT22;4771;48.726;9.006;2023-04-01T14:23:25;10.10;99.90
9466;DHT22;4771;48.726;9.006;2023-04-01T14:26:19;10.20;99.90
9466;DHT22;4771;48.726;9.006;2023-04-01T14:28:56;10.20;99.90
9466;DHT22;4771;48.726;9.006;2023-04-01T14:31:48;10.30;99.90
9466;DHT22;4771;48.726;9.006;2023-04-01T14:34:27;10.30;99.90
9466;DHT22;4771;48.726;9.006;2023-04-01T14:37:19;10.30;99.90
9466;DHT22;4771;48.726;9.006;2023-04-01T14:40:03;10.20;99.90
9466;DHT22;4771;48.726;9.006;2023-04-01T14:42:45;10.30;99.90
9466;DHT22;4771;48.726;9.006;2023-04-01T14:45:46;10.20;99.90
9466;DHT22;4771;48.726;9.006;2023-04-01T14:48:23;10.20;99.90
9466;DHT22;4771;48.726;9.006;2023-04-01T14:50:54;10.20;99.90
9466;DHT22;4771;48.726;9.006;2023-04-01T14:53:27;10.10;99.90
9466;DHT22;4771;48.726;9.006;2023-04-01T14:55:57;10.20;99.90
9466;DHT22;4771;48.726;9.006;2023-04-01T14:58:43;10.20;99.90
9466;DHT22;4771;48.726;9.006;2023-04-01T15:04:13;10.20;99.90
9466;DHT22;4771;48.726;9.006;2023-04-01T15:07:01;10.20;99.90
9466;DHT22;4771;48.726;9.006;2023-04-01T15:09:35;10.00;99.90
9466;DHT22;4771;48.726;9.006;2023-04-01T15:12:17;10.00;99.90
9466;DHT22;4771;48.726;9.006;2023-04-01T15:14:58;10.10;99.90
9466;DHT22;4771;48.726;9.006;2023-04-01T15:17:41;10.20;99.90
9466;DHT22;4771;48.726;9.006;2023-04-01T15:20:22;10.10;99.90
9466;DHT22;4771;48.726;9.006;2023-04-01T15:23:03;10.10;99.90
9466;DHT22;4771;48.726;9.006;2023-04-01T15:25:45;10.30;99.90
9466;DHT22;4771;48.726;9.006;2023-04-01T15:28:24;10.00;99.90
9466;DHT22;4771;48.726;9.006;2023-04-01T15:31:00;9.90;99.90
9466;DHT22;4771;48.726;9.006;2023-04-01T15:33:49;9.90;99.90
9466;DHT22;4771;48.726;9.006;2023-04-01T15:36:30;9.90;99.90
9466;DHT22;4771;48.726;9.006;2023-04-01T15:39:09;9.90;99.90
9466;DHT22;4771;48.726;9.006;2023-04-01T15:41:46;10.00;99.90
9466;DHT22;4771;48.726;9.006;2023-04-01T15:47:40;9.90;99.90
9466;DHT22;4771;48.726;9.006;2023-04-01T15:53:24;10.00;99.90
9466;DHT22;4771;48.726;9.006;2023-04-01T15:55:57;9.80;99.90
9466;DHT22;4771;48.726;9.006;2023-04-01T15:58:40;9.90;99.90
9466;DHT22;4771;48.726;9.006;2023-04-01T16:01:15;9.90;99.90
9466;DHT22;4771;48.726;9.006;2023-04-01T16:03:51;9.70;99.90
9466;DHT22;4771;48.726;9.006;2023-04-01T16:06:34;9.70;99.90
9466;DHT22;4771;48.726;9.006;2023-04-01T16:12:15;9.70;99.90
9466;DHT22;4771;48.726;9.006;2023-04-01T16:14:52;9.80;99.90
9466;DHT22;4771;48.726;9.006;2023-04-01T16:17:33;9.70;99.90
9466;DHT22;4771;48.726;9.006;2023-04-01T16:20:13;9.70;99.90
9466;DHT22;4771;48.726;9.006;2023-04-01T16:22:51;9.80;99.90
9466;DHT22;4771;48.726;9.006;2023-04-01T16:25:36;9.80;99.90
9466;DHT22;4771;48.726;9.006;2023-04-01T16:28:18;9.80;99.90
9466;DHT22;4771;48.726;9.006;2023-04-01T16:30:55;9.70;99.90
9466;DHT22;4771;48.726;9.006;2023-04-01T16:33:28;9.60;99.90
9466;DHT22;4771;48.726;9.006;2023-04-01T16:36:00;9.70;99.90
9466;DHT22;4771;48.726;9.006;2023-04-01T16:38:39;9.80;99.90
9466;DHT22;4771;48.726;9.006;2023-04-01T16:41:13;9.90;99.90
9466;DHT22;4771;48.726;9.006;2023-04-01T16:43:44;9.90;99.90
9466;DHT22;4771;48.726;9.006;2023-04-01T16:46:28;10.00;99.90
9466;DHT22;4771;48.726;9.006;2023-04-01T16:49:04;10.00;99.90
9466;DHT22;4771;48.726;9.006;2023-04-01T16:51:45;10.00;99.90
9466;DHT22;4771;48.726;9.006;2023-04-01T16:54:24;10.10;99.90
9466;DHT22;4771;48.726;9.006;2023-04-01T16:56:56;10.10;99.90
9466;DHT22;4771;48.726;9.006;2023-04-01T16:59:33;10.00;99.90
9466;DHT22;4771;48.726;9.006;2023-04-01T17:02:04;10.00;99.90
9466;DHT22;4771;48.726;9.006;2023-04-01T17:04:40;10.10;99.90
9466;DHT22;4771;48.726;9.006;2023-04-01T17:07:21;10.10;99.90
9466;DHT22;4771;48.726;9.006;2023-04-01T17:10:11;10.00;99.90
9466;DHT22;4771;48.726;9.006;2023-04-01T17:12:46;10.10;99.90
9466;DHT22;4771;48.726;9.006;2023-04-01T17:15:21;10.10;99.90
9466;DHT22;4771;48.726;9.006;2023-04-01T17:17:59;10.10;99.90
9466;DHT22;4771;48.726;9.006;2023-04-01T17:20:39;10.20;99.90
9466;DHT22;4771;48.726;9.006;2023-04-01T17:23:14;10.10;99.90
9466;DHT22;4771;48.726;9.006;2023-04-01T17:26:01;10.10;99.90
9466;DHT22;4771;48.726;9.006;2023-04-01T17:28:41;10.10;99.90
9466;DHT22;4771;48.726;9.006;2023-04-01T17:31:16;10.10;99.90
9466;DHT22;4771;48.726;9.006;2023-04-01T17:34:03;10.10;99.90
9466;DHT22;4771;48.726;9.006;2023-04-01T17:36:40;10.20;99.90
9466;DHT22;4771;48.726;9.006;2023-04-01T17:39:23;10.20;99.90
9466;DHT22;4771;48.726;9.006;2023-04-01T17:41:54;10.20;99.90
9466;DHT22;4771;48.726;9.006;2023-04-01T17:44:44;10.10;99.90
9466;DHT22;4771;48.726;9.006;2023-04-01T17:47:34;10.20;99.90
9466;DHT22;4771;48.726;9.006;2023-04-01T17:50:14;10.10;99.90
9466;DHT22;4771;48.726;9.006;2023-04-01T17:52:48;10.10;99.90
9466;DHT22;4771;48.726;9.006;2023-04-01T17:55:41;10.10;99.90
9466;DHT22;4771;48.726;9.006;2023-04-01T17:58:18;10.20;99.90
9466;DHT22;4771;48.726;9.006;2023-04-01T18:03:55;10.00;99.90
9466;DHT22;4771;48.726;9.006;2023-04-01T18:06:31;9.80;99.90
9466;DHT22;4771;48.726;9.006;2023-04-01T18:09:08;9.70;99.90
9466;DHT22;4771;48.726;9.006;2023-04-01T18:11:44;9.60;99.90
9466;DHT22;4771;48.726;9.006;2023-04-01T18:14:37;9.50;99.90
9466;DHT22;4771;48.726;9.006;2023-04-01T18:17:24;9.10;99.90
9466;DHT22;4771;48.726;9.006;2023-04-01T18:20:02;9.10;99.90